sensor_id;sensor_type;location;lat;lon;timestamp;P1;durP1;ratioP1;P2;durP2;ratioP2
50363;SDS011;36272;59.400;17.982;2023-03-11T00:03:07;13.02;;;7.20;;
50363;SDS011;36272;59.400;17.982;2023-03-11T00:08:13;16.13;;;7.35;;
50363;SDS011;36272;59.400;17.982;2023-03-11T00:13:19;18.05;;;7.28;;
50363;SDS011;36272;59.400;17.982;2023-03-11T00:18:27;25.30;;;11.70;;
50363;SDS011;36272;59.400;17.982;2023-03-11T00:23:31;20.75;;;8.43;;
50363;SDS011;36272;59.400;17.982;2023-03-11T00:28:34;13.85;;;6.53;;
50363;SDS011;36272;59.400;17.982;2023-03-11T00:33:36;13.80;;;6.65;;
50363;SDS011;36272;59.400;17.982;2023-03-11T00:38:39;17.63;;;7.20;;
50363;SDS011;36272;59.400;17.982;2023-03-11T00:43:40;16.27;;;6.28;;
50363;SDS011;36272;59.400;17.982;2023-03-11T00:48:42;14.77;;;6.00;;
50363;SDS011;36272;59.400;17.982;2023-03-11T00:53:44;14.93;;;5.70;;
50363;SDS011;36272;59.400;17.982;2023-03-11T00:58:47;12.73;;;5.80;;
50363;SDS011;36272;59.400;17.982;2023-03-11T01:03:48;9.57;;;5.00;;
50363;SDS011;36272;59.400;17.982;2023-03-11T01:08:50;12.63;;;5.40;;
50363;SDS011;36272;59.400;17.982;2023-03-11T01:13:52;13.32;;;5.65;;
50363;SDS011;36272;59.400;17.982;2023-03-11T01:18:53;11.85;;;5.22;;
50363;SDS011;36272;59.400;17.982;2023-03-11T01:23:55;12.02;;;4.82;;
50363;SDS011;36272;59.400;17.982;2023-03-11T01:34:33;13.00;;;5.57;;
50363;SDS011;36272;59.400;17.982;2023-03-11T01:39:36;13.20;;;5.45;;
50363;SDS011;36272;59.400;17.982;2023-03-11T01:44:37;11.80;;;5.32;;
50363;SDS011;36272;59.400;17.982;2023-03-11T01:49:39;11.48;;;5.13;;
50363;SDS011;36272;59.400;17.982;2023-03-11T01:54:43;15.10;;;5.18;;
50363;SDS011;36272;59.400;17.982;2023-03-11T02:05:10;14.77;;;5.30;;
50363;SDS011;36272;59.400;17.982;2023-03-11T02:10:12;14.27;;;4.70;;
50363;SDS011;36272;59.400;17.982;2023-03-11T02:15:15;11.18;;;4.40;;
50363;SDS011;36272;59.400;17.982;2023-03-11T02:31:08;9.15;;;4.18;;
50363;SDS011;36272;59.400;17.982;2023-03-11T02:47:16;15.00;;;4.45;;
50363;SDS011;36272;59.400;17.982;2023-03-11T02:52:18;10.35;;;4.32;;
50363;SDS011;36272;59.400;17.982;2023-03-11T02:57:20;11.60;;;3.97;;
50363;SDS011;36272;59.400;17.982;2023-03-11T03:02:32;11.40;;;4.07;;
50363;SDS011;36272;59.400;17.982;2023-03-11T03:07:34;9.82;;;4.05;;
50363;SDS011;36272;59.400;17.982;2023-03-11T03:12:36;9.25;;;4.30;;
50363;SDS011;36272;59.400;17.982;2023-03-11T03:17:37;9.80;;;4.18;;
50363;SDS011;36272;59.400;17.982;2023-03-11T03:22:40;8.25;;;3.65;;
50363;SDS011;36272;59.400;17.982;2023-03-11T03:27:42;8.15;;;3.67;;
50363;SDS011;36272;59.400;17.982;2023-03-11T03:32:44;8.30;;;3.78;;
50363;SDS011;36272;59.400;17.982;2023-03-11T03:37:46;9.93;;;3.88;;
50363;SDS011;36272;59.400;17.982;2023-03-11T03:42:47;8.63;;;4.20;;
50363;SDS011;36272;59.400;17.982;2023-03-11T03:47:49;7.95;;;3.72;;
50363;SDS011;36272;59.400;17.982;2023-03-11T03:52:51;14.15;;;4.03;;
50363;SDS011;36272;59.400;17.982;2023-03-11T03:57:52;6.90;;;3.55;;
50363;SDS011;36272;59.400;17.982;2023-03-11T04:02:54;7.13;;;3.55;;
50363;SDS011;36272;59.400;17.982;2023-03-11T04:07:56;9.88;;;4.05;;
50363;SDS011;36272;59.400;17.982;2023-03-11T04:12:58;9.73;;;4.00;;
50363;SDS011;36272;59.400;17.982;2023-03-11T04:17:59;11.63;;;4.15;;
50363;SDS011;36272;59.400;17.982;2023-03-11T04:23:01;7.30;;;3.55;;
50363;SDS011;36272;59.400;17.982;2023-03-11T04:34:00;10.35;;;3.35;;
50363;SDS011;36272;59.400;17.982;2023-03-11T04:39:02;8.00;;;4.07;;
50363;SDS011;36272;59.400;17.982;2023-03-11T04:44:05;7.60;;;3.50;;
50363;SDS011;36272;59.400;17.982;2023-03-11T04:49:07;7.35;;;3.80;;
50363;SDS011;36272;59.400;17.982;2023-03-11T04:54:10;12.25;;;3.90;;
50363;SDS011;36272;59.400;17.982;2023-03-11T05:04:49;8.57;;;3.20;;
50363;SDS011;36272;59.400;17.982;2023-03-11T05:09:51;10.93;;;3.85;;
50363;SDS011;36272;59.400;17.982;2023-03-11T05:14:52;5.25;;;3.28;;
50363;SDS011;36272;59.400;17.982;2023-03-11T05:19:54;6.60;;;3.58;;
50363;SDS011;36272;59.400;17.982;2023-03-11T05:24:57;7.00;;;3.28;;
50363;SDS011;36272;59.400;17.982;2023-03-11T05:35:45;7.40;;;3.53;;
50363;SDS011;36272;59.400;17.982;2023-03-11T05:40:47;6.80;;;3.08;;
50363;SDS011;36272;59.400;17.982;2023-03-11T05:45:48;9.65;;;3.75;;
50363;SDS011;36272;59.400;17.982;2023-03-11T05:50:50;8.50;;;3.40;;
50363;SDS011;36272;59.400;17.982;2023-03-11T05:55:58;6.95;;;3.25;;
50363;SDS011;36272;59.400;17.982;2023-03-11T06:06:34;6.82;;;3.22;;
50363;SDS011;36272;59.400;17.982;2023-03-11T06:11:35;7.30;;;3.65;;
50363;SDS011;36272;59.400;17.982;2023-03-11T06:16:37;12.55;;;3.35;;
50363;SDS011;36272;59.400;17.982;2023-03-11T06:21:54;8.50;;;3.70;;
50363;SDS011;36272;59.400;17.982;2023-03-11T06:26:55;7.60;;;3.72;;
50363;SDS011;36272;59.400;17.982;2023-03-11T06:37:21;9.38;;;3.83;;
50363;SDS011;36272;59.400;17.982;2023-03-11T06:42:25;10.07;;;3.20;;
50363;SDS011;36272;59.400;17.982;2023-03-11T06:47:27;7.30;;;3.60;;
50363;SDS011;36272;59.400;17.982;2023-03-11T06:52:28;9.02;;;3.78;;
50363;SDS011;36272;59.400;17.982;2023-03-11T06:57:30;7.75;;;3.63;;
50363;SDS011;36272;59.400;17.982;2023-03-11T07:02:33;7.47;;;3.75;;
50363;SDS011;36272;59.400;17.982;2023-03-11T07:07:35;7.05;;;3.58;;
50363;SDS011;36272;59.400;17.982;2023-03-11T07:12:36;12.48;;;3.53;;
50363;SDS011;36272;59.400;17.982;2023-03-11T07:17:38;6.82;;;3.17;;
50363;SDS011;36272;59.400;17.982;2023-03-11T07:22:39;8.30;;;3.15;;
50363;SDS011;36272;59.400;17.982;2023-03-11T07:27:41;8.70;;;3.40;;
50363;SDS011;36272;59.400;17.982;2023-03-11T07:32:43;8.80;;;3.80;;
50363;SDS011;36272;59.400;17.982;2023-03-11T07:37:44;8.25;;;3.58;;
50363;SDS011;36272;59.400;17.982;2023-03-11T07:42:46;9.93;;;3.85;;
50363;SDS011;36272;59.400;17.982;2023-03-11T07:53:13;6.78;;;3.63;;
50363;SDS011;36272;59.400;17.982;2023-03-11T07:58:17;7.88;;;3.63;;
50363;SDS011;36272;59.400;17.982;2023-03-11T08:03:19;11.15;;;3.80;;
50363;SDS011;36272;59.400;17.982;2023-03-11T08:13:45;9.70;;;3.80;;
50363;SDS011;36272;59.400;17.982;2023-03-11T08:18:48;7.25;;;4.10;;
50363;SDS011;36272;59.400;17.982;2023-03-11T08:23:51;8.80;;;4.25;;
50363;SDS011;36272;59.400;17.982;2023-03-11T08:34:19;11.07;;;4.18;;
50363;SDS011;36272;59.400;17.982;2023-03-11T08:39:22;8.57;;;4.30;;
50363;SDS011;36272;59.400;17.982;2023-03-11T08:44:24;7.55;;;4.13;;
50363;SDS011;36272;59.400;17.982;2023-03-11T08:49:25;9.48;;;3.95;;
50363;SDS011;36272;59.400;17.982;2023-03-11T08:54:29;12.13;;;4.45;;
50363;SDS011;36272;59.400;17.982;2023-03-11T09:04:58;8.23;;;4.50;;
50363;SDS011;36272;59.400;17.982;2023-03-11T09:10:00;9.85;;;4.63;;
50363;SDS011;36272;59.400;17.982;2023-03-11T09:15:02;8.27;;;4.22;;
50363;SDS011;36272;59.400;17.982;2023-03-11T09:20:07;14.88;;;4.75;;
50363;SDS011;36272;59.400;17.982;2023-03-11T09:25:10;7.63;;;3.75;;
50363;SDS011;36272;59.400;17.982;2023-03-11T09:30:20;8.10;;;3.67;;
50363;SDS011;36272;59.400;17.982;2023-03-11T09:35:22;7.45;;;3.60;;
50363;SDS011;36272;59.400;17.982;2023-03-11T09:40:25;10.07;;;3.45;;
50363;SDS011;36272;59.400;17.982;2023-03-11T09:45:33;6.32;;;3.80;;
50363;SDS011;36272;59.400;17.982;2023-03-11T09:50:46;7.97;;;3.80;;
50363;SDS011;36272;59.400;17.982;2023-03-11T09:56:00;9.70;;;4.20;;
50363;SDS011;36272;59.400;17.982;2023-03-11T10:06:23;9.68;;;3.88;;
50363;SDS011;36272;59.400;17.982;2023-03-11T10:16:55;8.27;;;5.00;;
50363;SDS011;36272;59.400;17.982;2023-03-11T10:28:04;10.85;;;6.15;;
50363;SDS011;36272;59.400;17.982;2023-03-11T10:33:32;9.43;;;5.30;;
50363;SDS011;36272;59.400;17.982;2023-03-11T10:38:50;10.95;;;5.15;;
50363;SDS011;36272;59.400;17.982;2023-03-11T10:44:04;9.40;;;4.47;;
50363;SDS011;36272;59.400;17.982;2023-03-11T10:49:15;9.55;;;4.80;;
50363;SDS011;36272;59.400;17.982;2023-03-11T11:05:41;5.70;;;4.40;;
50363;SDS011;36272;59.400;17.982;2023-03-11T11:10:35;7.75;;;4.32;;
50363;SDS011;36272;59.400;17.982;2023-03-11T11:21:00;9.65;;;4.88;;
50363;SDS011;36272;59.400;17.982;2023-03-11T11:26:06;10.25;;;5.07;;
50363;SDS011;36272;59.400;17.982;2023-03-11T11:31:21;10.80;;;4.50;;
50363;SDS011;36272;59.400;17.982;2023-03-11T11:36:27;6.05;;;4.05;;
50363;SDS011;36272;59.400;17.982;2023-03-11T11:46:39;8.23;;;4.78;;
50363;SDS011;36272;59.400;17.982;2023-03-11T11:51:46;7.47;;;4.57;;
50363;SDS011;36272;59.400;17.982;2023-03-11T11:56:56;12.40;;;4.50;;
50363;SDS011;36272;59.400;17.982;2023-03-11T12:02:03;7.43;;;3.90;;
50363;SDS011;36272;59.400;17.982;2023-03-11T12:12:34;8.52;;;3.85;;
50363;SDS011;36272;59.400;17.982;2023-03-11T12:17:42;5.75;;;4.07;;
50363;SDS011;36272;59.400;17.982;2023-03-11T12:33:15;6.57;;;3.70;;
50363;SDS011;36272;59.400;17.982;2023-03-11T12:38:38;6.85;;;3.67;;
50363;SDS011;36272;59.400;17.982;2023-03-11T12:48:43;7.40;;;3.42;;
50363;SDS011;36272;59.400;17.982;2023-03-11T12:53:47;6.40;;;3.15;;
50363;SDS011;36272;59.400;17.982;2023-03-11T13:10:10;6.05;;;3.10;;
50363;SDS011;36272;59.400;17.982;2023-03-11T13:15:36;4.78;;;2.65;;
50363;SDS011;36272;59.400;17.982;2023-03-11T13:25:39;5.35;;;2.75;;
50363;SDS011;36272;59.400;17.982;2023-03-11T13:30:52;5.65;;;3.25;;
50363;SDS011;36272;59.400;17.982;2023-03-11T13:36:20;5.93;;;3.03;;
50363;SDS011;36272;59.400;17.982;2023-03-11T13:41:35;4.97;;;2.55;;
50363;SDS011;36272;59.400;17.982;2023-03-11T13:46:39;4.50;;;2.97;;
50363;SDS011;36272;59.400;17.982;2023-03-11T13:51:44;4.55;;;2.80;;
50363;SDS011;36272;59.400;17.982;2023-03-11T13:56:50;6.53;;;2.38;;
50363;SDS011;36272;59.400;17.982;2023-03-11T14:01:57;3.72;;;2.60;;
50363;SDS011;36272;59.400;17.982;2023-03-11T14:07:11;4.28;;;2.55;;
50363;SDS011;36272;59.400;17.982;2023-03-11T14:12:18;4.00;;;2.45;;
50363;SDS011;36272;59.400;17.982;2023-03-11T14:17:19;2.53;;;2.08;;
50363;SDS011;36272;59.400;17.982;2023-03-11T14:22:21;3.72;;;1.90;;
50363;SDS011;36272;59.400;17.982;2023-03-11T14:27:23;3.42;;;1.58;;
50363;SDS011;36272;59.400;17.982;2023-03-11T14:32:36;2.83;;;1.80;;
50363;SDS011;36272;59.400;17.982;2023-03-11T14:37:37;3.28;;;1.48;;
50363;SDS011;36272;59.400;17.982;2023-03-11T14:42:42;2.67;;;1.42;;
50363;SDS011;36272;59.400;17.982;2023-03-11T14:53:25;2.65;;;1.40;;
50363;SDS011;36272;59.400;17.982;2023-03-11T14:58:59;1.30;;;0.90;;
50363;SDS011;36272;59.400;17.982;2023-03-11T15:04:32;2.85;;;1.35;;
50363;SDS011;36272;59.400;17.982;2023-03-11T15:14:49;6.38;;;1.50;;
50363;SDS011;36272;59.400;17.982;2023-03-11T15:19:57;2.10;;;1.20;;
50363;SDS011;36272;59.400;17.982;2023-03-11T15:25:00;3.50;;;1.38;;
50363;SDS011;36272;59.400;17.982;2023-03-11T15:30:13;3.50;;;1.25;;
50363;SDS011;36272;59.400;17.982;2023-03-11T15:35:27;2.07;;;1.40;;
50363;SDS011;36272;59.400;17.982;2023-03-11T15:40:30;1.60;;;0.73;;
50363;SDS011;36272;59.400;17.982;2023-03-11T15:45:34;2.10;;;1.20;;
50363;SDS011;36272;59.400;17.982;2023-03-11T15:50:44;1.50;;;1.10;;
50363;SDS011;36272;59.400;17.982;2023-03-11T15:55:48;5.80;;;2.75;;
50363;SDS011;36272;59.400;17.982;2023-03-11T16:00:52;9.88;;;3.00;;
50363;SDS011;36272;59.400;17.982;2023-03-11T16:10:57;12.65;;;2.42;;
50363;SDS011;36272;59.400;17.982;2023-03-11T16:15:59;7.60;;;2.45;;
50363;SDS011;36272;59.400;17.982;2023-03-11T16:21:02;6.70;;;2.63;;
50363;SDS011;36272;59.400;17.982;2023-03-11T16:26:09;4.50;;;2.60;;
50363;SDS011;36272;59.400;17.982;2023-03-11T16:31:12;5.22;;;2.70;;
50363;SDS011;36272;59.400;17.982;2023-03-11T16:36:14;8.30;;;2.53;;
50363;SDS011;36272;59.400;17.982;2023-03-11T16:41:16;6.75;;;2.25;;
50363;SDS011;36272;59.400;17.982;2023-03-11T16:46:18;8.60;;;2.65;;
50363;SDS011;36272;59.400;17.982;2023-03-11T16:51:22;7.90;;;2.58;;
50363;SDS011;36272;59.400;17.982;2023-03-11T16:56:23;8.75;;;2.35;;
50363;SDS011;36272;59.400;17.982;2023-03-11T17:01:28;7.45;;;2.92;;
50363;SDS011;36272;59.400;17.982;2023-03-11T17:06:30;8.45;;;2.60;;
50363;SDS011;36272;59.400;17.982;2023-03-11T17:11:31;9.65;;;2.60;;
50363;SDS011;36272;59.400;17.982;2023-03-11T17:16:34;9.07;;;2.53;;
50363;SDS011;36272;59.400;17.982;2023-03-11T17:21:36;12.10;;;2.47;;
50363;SDS011;36272;59.400;17.982;2023-03-11T17:26:37;10.30;;;2.85;;
50363;SDS011;36272;59.400;17.982;2023-03-11T17:31:39;9.18;;;2.80;;
50363;SDS011;36272;59.400;17.982;2023-03-11T17:36:41;18.65;;;3.65;;
50363;SDS011;36272;59.400;17.982;2023-03-11T17:41:47;15.45;;;3.58;;
50363;SDS011;36272;59.400;17.982;2023-03-11T17:46:49;22.13;;;4.30;;
50363;SDS011;36272;59.400;17.982;2023-03-11T17:51:51;24.65;;;3.72;;
50363;SDS011;36272;59.400;17.982;2023-03-11T17:56:53;28.88;;;4.43;;
50363;SDS011;36272;59.400;17.982;2023-03-11T18:02:00;15.35;;;3.90;;
50363;SDS011;36272;59.400;17.982;2023-03-11T18:07:02;17.30;;;3.63;;
50363;SDS011;36272;59.400;17.982;2023-03-11T18:12:04;25.05;;;4.43;;
50363;SDS011;36272;59.400;17.982;2023-03-11T18:17:06;28.45;;;4.82;;
50363;SDS011;36272;59.400;17.982;2023-03-11T18:22:08;19.55;;;4.47;;
50363;SDS011;36272;59.400;17.982;2023-03-11T18:27:13;22.27;;;4.78;;
50363;SDS011;36272;59.400;17.982;2023-03-11T18:32:17;30.83;;;6.63;;
50363;SDS011;36272;59.400;17.982;2023-03-11T18:37:20;33.83;;;6.25;;
50363;SDS011;36272;59.400;17.982;2023-03-11T18:42:22;39.42;;;6.65;;
50363;SDS011;36272;59.400;17.982;2023-03-11T18:47:24;37.88;;;5.25;;
50363;SDS011;36272;59.400;17.982;2023-03-11T18:52:26;40.50;;;7.85;;
50363;SDS011;36272;59.400;17.982;2023-03-11T18:57:27;53.65;;;10.50;;
50363;SDS011;36272;59.400;17.982;2023-03-11T19:02:29;45.78;;;10.93;;
50363;SDS011;36272;59.400;17.982;2023-03-11T19:07:30;37.88;;;9.98;;
50363;SDS011;36272;59.400;17.982;2023-03-11T19:12:32;32.20;;;8.70;;
50363;SDS011;36272;59.400;17.982;2023-03-11T19:17:34;28.83;;;7.72;;
50363;SDS011;36272;59.400;17.982;2023-03-11T19:22:36;30.65;;;7.15;;
50363;SDS011;36272;59.400;17.982;2023-03-11T19:27:38;33.60;;;8.52;;
50363;SDS011;36272;59.400;17.982;2023-03-11T19:32:40;26.42;;;7.75;;
50363;SDS011;36272;59.400;17.982;2023-03-11T19:37:42;25.15;;;6.90;;
50363;SDS011;36272;59.400;17.982;2023-03-11T19:42:43;22.30;;;6.95;;
50363;SDS011;36272;59.400;17.982;2023-03-11T19:47:45;23.52;;;6.68;;
50363;SDS011;36272;59.400;17.982;2023-03-11T19:57:52;13.85;;;4.97;;
50363;SDS011;36272;59.400;17.982;2023-03-11T20:02:54;14.52;;;4.90;;
50363;SDS011;36272;59.400;17.982;2023-03-11T20:07:56;14.13;;;5.78;;
50363;SDS011;36272;59.400;17.982;2023-03-11T20:12:58;17.02;;;4.68;;
50363;SDS011;36272;59.400;17.982;2023-03-11T20:18:02;14.50;;;5.18;;
50363;SDS011;36272;59.400;17.982;2023-03-11T20:23:05;18.42;;;5.57;;
50363;SDS011;36272;59.400;17.982;2023-03-11T20:28:07;19.70;;;4.65;;
50363;SDS011;36272;59.400;17.982;2023-03-11T20:33:09;15.65;;;4.68;;
50363;SDS011;36272;59.400;17.982;2023-03-11T20:38:11;15.75;;;3.78;;
50363;SDS011;36272;59.400;17.982;2023-03-11T20:43:13;15.65;;;4.88;;
50363;SDS011;36272;59.400;17.982;2023-03-11T20:48:14;7.90;;;3.85;;
50363;SDS011;36272;59.400;17.982;2023-03-11T20:53:16;13.13;;;3.67;;
50363;SDS011;36272;59.400;17.982;2023-03-11T20:58:18;9.57;;;3.85;;
50363;SDS011;36272;59.400;17.982;2023-03-11T21:03:19;11.13;;;3.92;;
50363;SDS011;36272;59.400;17.982;2023-03-11T21:08:26;13.43;;;3.83;;
50363;SDS011;36272;59.400;17.982;2023-03-11T21:13:28;16.30;;;3.72;;
50363;SDS011;36272;59.400;17.982;2023-03-11T21:18:31;16.42;;;3.60;;
50363;SDS011;36272;59.400;17.982;2023-03-11T21:23:33;11.30;;;3.50;;
50363;SDS011;36272;59.400;17.982;2023-03-11T21:28:46;7.97;;;3.53;;
50363;SDS011;36272;59.400;17.982;2023-03-11T21:33:48;13.60;;;3.53;;
50363;SDS011;36272;59.400;17.982;2023-03-11T21:38:53;7.25;;;3.50;;
50363;SDS011;36272;59.400;17.982;2023-03-11T21:43:55;17.13;;;3.63;;
50363;SDS011;36272;59.400;17.982;2023-03-11T21:48:57;7.53;;;3.22;;
50363;SDS011;36272;59.400;17.982;2023-03-11T21:54:00;14.13;;;4.10;;
50363;SDS011;36272;59.400;17.982;2023-03-11T21:59:08;7.47;;;3.28;;
50363;SDS011;36272;59.400;17.982;2023-03-11T22:04:10;15.02;;;5.00;;
50363;SDS011;36272;59.400;17.982;2023-03-11T22:09:12;15.07;;;3.40;;
50363;SDS011;36272;59.400;17.982;2023-03-11T22:14:13;10.57;;;3.97;;
50363;SDS011;36272;59.400;17.982;2023-03-11T22:19:15;16.88;;;3.92;;
50363;SDS011;36272;59.400;17.982;2023-03-11T22:24:17;9.70;;;3.90;;
50363;SDS011;36272;59.400;17.982;2023-03-11T22:29:18;14.38;;;4.97;;
50363;SDS011;36272;59.400;17.982;2023-03-11T22:34:20;18.08;;;4.70;;
50363;SDS011;36272;59.400;17.982;2023-03-11T22:39:22;17.10;;;4.78;;
50363;SDS011;36272;59.400;17.982;2023-03-11T22:44:23;12.77;;;4.05;;
50363;SDS011;36272;59.400;17.982;2023-03-11T22:49:25;12.95;;;3.92;;
50363;SDS011;36272;59.400;17.982;2023-03-11T22:54:27;9.40;;;3.72;;
50363;SDS011;36272;59.400;17.982;2023-03-11T22:59:34;14.30;;;4.38;;
50363;SDS011;36272;59.400;17.982;2023-03-11T23:04:36;12.18;;;4.03;;
50363;SDS011;36272;59.400;17.982;2023-03-11T23:09:38;11.30;;;3.40;;
50363;SDS011;36272;59.400;17.982;2023-03-11T23:14:39;7.38;;;3.63;;
50363;SDS011;36272;59.400;17.982;2023-03-11T23:19:41;11.80;;;4.55;;
50363;SDS011;36272;59.400;17.982;2023-03-11T23:24:43;9.35;;;4.30;;
50363;SDS011;36272;59.400;17.982;2023-03-11T23:29:45;11.95;;;4.95;;
50363;SDS011;36272;59.400;17.982;2023-03-11T23:34:48;13.93;;;4.47;;
50363;SDS011;36272;59.400;17.982;2023-03-11T23:39:49;18.10;;;4.50;;
50363;SDS011;36272;59.400;17.982;2023-03-11T23:44:51;10.27;;;4.13;;
50363;SDS011;36272;59.400;17.982;2023-03-11T23:49:53;11.02;;;4.22;;
50363;SDS011;36272;59.400;17.982;2023-03-11T23:54:55;14.02;;;4.10;;
50363;SDS011;36272;59.400;17.982;2023-03-11T23:59:56;10.88;;;3.65;;
